createdAt,value
2019-05-21T01:17:30.788Z,99575.23
2019-05-21T01:21:38.932Z,99585.91
2019-05-21T01:25:46.944Z,99588.84
2019-05-21T01:29:56.805Z,99598.13
2019-05-21T01:34:04.997Z,99592.91
2019-05-21T01:38:12.838Z,99595.68
2019-05-21T01:42:20.818Z,99597.95
2019-05-21T01:46:28.804Z,99598.77
2019-05-21T01:50:36.276Z,99597.57
2019-05-21T01:54:43.894Z,99602.48
2019-05-21T01:58:51.489Z,99599.45
2019-05-21T02:02:59.671Z,99586.06
2019-05-21T02:07:07.660Z,99583.98
2019-05-21T02:11:15.155Z,99588.81
2019-05-21T02:15:22.854Z,99595.95
2019-05-21T02:19:30.856Z,99593.17
2019-05-21T02:23:38.424Z,99604.05
2019-05-21T02:27:46.493Z,99597.50
2019-05-21T02:31:54.076Z,99601.33
2019-05-21T02:36:01.966Z,99604.32
2019-05-21T02:40:10.539Z,99600.11
2019-05-21T02:44:18.072Z,99602.69
2019-05-21T02:48:25.942Z,99595.08
2019-05-21T02:52:34.144Z,99602.22
2019-05-21T02:56:41.718Z,99601.34
2019-05-21T03:01:18.306Z,99606.80
2019-05-21T03:05:26.386Z,99605.30
2019-05-21T03:09:34.080Z,99607.03
2019-05-21T03:13:42.169Z,99599.52
2019-05-21T03:17:49.979Z,99610.05
2019-05-21T03:21:57.456Z,99608.31
2019-05-21T03:26:05.540Z,99615.28
2019-05-21T03:30:13.597Z,99614.02
2019-05-21T03:34:21.770Z,99618.70
2019-05-21T03:38:31.591Z,99613.55
2019-05-21T03:42:39.288Z,99612.64
2019-05-21T03:46:47.192Z,99618.16
2019-05-21T03:50:55.286Z,99615.03
2019-05-21T03:55:03.587Z,99618.95
2019-05-21T03:59:11.581Z,99618.98
2019-05-21T04:03:19.361Z,99621.52
2019-05-21T04:07:27.481Z,99631.33
2019-05-21T04:11:35.697Z,99637.98
2019-05-21T04:15:59.985Z,99621.90
2019-05-21T04:20:08.346Z,99621.90
2019-05-21T04:24:16.335Z,99632.04
2019-05-21T04:28:24.317Z,99633.30
2019-05-21T04:32:32.308Z,99632.17
2019-05-21T04:36:39.716Z,99630.30
2019-05-21T04:40:47.665Z,99638.52
2019-05-21T04:44:55.271Z,99646.20
2019-05-21T04:49:02.874Z,99651.03
2019-05-21T04:53:11.131Z,99656.44
2019-05-21T04:57:19.098Z,99647.70
2019-05-21T05:01:27.217Z,99647.77
2019-05-21T05:05:35.118Z,99649.29
2019-05-21T05:09:42.958Z,99636.95
2019-05-21T05:13:51.399Z,99643.25
2019-05-21T05:17:59.440Z,99638.22
2019-05-21T05:22:06.938Z,99634.34
2019-05-21T05:26:15.032Z,99647.25
2019-05-21T05:30:23.212Z,99651.06
2019-05-21T05:34:31.432Z,99648.84
2019-05-21T05:38:40.105Z,99645.96
2019-05-21T05:42:47.894Z,99650.42
2019-05-21T05:46:55.901Z,99660.53
2019-05-21T05:51:05.447Z,99657.77
2019-05-21T05:55:13.468Z,99663.13
2019-05-21T05:59:21.471Z,99660.70
2019-05-21T06:03:30.820Z,99669.81
2019-05-21T06:07:38.578Z,99661.84
2019-05-21T06:11:46.569Z,99655.31
2019-05-21T06:15:54.169Z,99658.77
2019-05-21T06:20:02.040Z,99659.30
2019-05-21T06:24:13.339Z,99664.51
2019-05-21T06:28:20.300Z,99662.72
2019-05-21T06:32:28.271Z,99667.17
2019-05-21T06:36:35.844Z,99673.95
2019-05-21T06:40:43.817Z,99665.34
2019-05-21T06:44:51.889Z,99672.06
2019-05-21T06:48:59.623Z,99669.99
2019-05-21T06:53:07.744Z,99677.89
2019-05-21T06:57:15.789Z,99681.70
2019-05-21T07:01:28.925Z,99675.56
2019-05-21T07:05:32.955Z,99669.57
2019-05-21T07:15:10.820Z,99675.67
2019-05-21T07:19:19.268Z,99669.03
2019-05-21T07:23:27.732Z,99649.77
2019-05-21T07:27:35.979Z,99644.16
2019-05-21T07:31:44.754Z,99654.88
2019-05-21T07:35:52.741Z,99654.88
2019-05-21T07:40:01.260Z,99645.13
2019-05-21T07:44:08.757Z,99647.52
2019-05-21T07:48:17.222Z,99659.97
2019-05-21T07:52:25.691Z,99659.97
2019-05-21T07:56:33.149Z,99657.98
2019-05-21T08:00:41.631Z,99666.08
2019-05-21T08:04:49.455Z,99669.48
2019-05-21T08:09:12.447Z,99660.97
2019-05-21T08:13:07.282Z,99651.14
2019-05-21T08:17:15.072Z,99647.03
2019-05-21T08:21:23.947Z,99649.13
2019-05-21T08:25:32.199Z,99642.83
2019-05-21T08:29:39.917Z,99645.54
2019-05-21T08:33:48.516Z,99639.67
2019-05-21T08:37:56.322Z,99636.27
2019-05-21T08:42:05.058Z,99643.97
2019-05-21T08:46:13.781Z,99637.01
2019-05-21T08:50:21.898Z,99637.63
2019-05-21T08:54:50.070Z,99630.77
2019-05-21T08:58:58.399Z,99634.34
2019-05-21T09:03:06.202Z,99635.97
2019-05-21T09:07:14.736Z,99630.78
2019-05-21T09:11:23.480Z,99628.63
2019-05-21T09:15:31.408Z,99631.56
2019-05-21T09:19:41.245Z,99625.47
2019-05-21T09:23:48.967Z,99614.28
2019-05-21T09:27:56.957Z,99626.39
2019-05-21T09:32:06.045Z,99629.36
2019-05-21T09:36:14.022Z,99628.59
2019-05-21T09:40:25.037Z,99624.00
2019-05-21T09:44:33.849Z,99622.80
2019-05-21T09:48:41.323Z,99617.31
2019-05-21T09:52:50.074Z,99617.58
2019-05-21T09:56:57.797Z,99607.19
2019-05-21T10:01:23.367Z,99607.14
2019-05-21T10:05:32.252Z,99602.48
2019-05-21T10:09:39.961Z,99604.36
2019-05-21T10:13:48.680Z,99600.00
2019-05-21T10:17:57.382Z,99603.81
2019-05-21T10:22:05.470Z,99607.41
2019-05-21T10:26:13.860Z,99609.36
2019-05-21T10:30:21.881Z,99603.58
2019-05-21T10:34:29.791Z,99597.91
2019-05-21T10:38:38.529Z,99597.77
2019-05-21T10:42:46.317Z,99604.14
2019-05-21T10:46:54.542Z,99592.36
2019-05-21T10:51:03.468Z,99593.20
2019-05-21T10:55:16.079Z,99585.45
2019-05-21T10:59:25.656Z,99578.86
2019-05-21T11:03:59.789Z,99581.61
2019-05-21T11:08:25.415Z,99565.38
2019-05-21T11:12:19.193Z,99555.28
2019-05-21T11:16:27.117Z,99542.98
2019-05-21T11:20:35.848Z,99549.81
2019-05-21T11:24:44.473Z,99553.41
2019-05-21T11:28:51.828Z,99537.77
2019-05-21T11:33:00.283Z,99537.34
2019-05-21T11:37:08.193Z,99548.80
2019-05-21T11:41:15.887Z,99578.76
2019-05-21T11:45:32.119Z,99578.76
2019-05-21T11:49:33.875Z,99604.00
2019-05-21T11:53:42.716Z,99593.34
2019-05-21T11:57:51.327Z,99593.34
2019-05-21T12:01:58.960Z,99582.11
2019-05-21T12:06:07.684Z,99613.25
2019-05-21T12:10:15.785Z,99603.20
2019-05-21T12:14:24.422Z,99585.20
2019-05-21T12:18:33.066Z,99574.09
2019-05-21T12:22:40.866Z,99560.84
2019-05-21T12:26:49.290Z,99567.95
2019-05-21T12:30:57.013Z,99533.98
2019-05-21T12:35:06.840Z,99533.98
2019-05-21T12:39:15.098Z,99535.28
2019-05-21T12:43:23.455Z,99527.96
2019-05-21T12:47:32.026Z,99506.13
2019-05-21T12:51:40.264Z,99518.98
2019-05-21T12:55:49.184Z,99520.20
2019-05-21T12:59:57.410Z,99520.20
2019-05-21T13:04:05.836Z,99521.39
2019-05-21T13:08:13.410Z,99522.73
2019-05-21T13:12:21.676Z,99516.73
2019-05-21T13:16:30.316Z,99518.57
2019-05-21T13:20:37.874Z,99518.48
2019-05-21T13:24:46.315Z,99502.61
2019-05-21T13:28:54.396Z,99488.53
2019-05-21T13:33:03.313Z,99460.67
2019-05-21T13:37:11.228Z,99460.67
2019-05-21T13:41:20.046Z,99480.59
2019-05-21T13:45:28.102Z,99505.30
2019-05-21T13:49:36.271Z,99513.59
2019-05-21T13:53:44.925Z,99513.59
2019-05-21T13:57:52.747Z,99527.67
2019-05-21T14:02:01.475Z,99531.77
2019-05-21T14:06:10.384Z,99513.81
2019-05-21T14:10:21.305Z,99516.44
2019-05-21T14:14:28.962Z,99513.06
2019-05-21T14:18:36.652Z,99500.58
2019-05-21T14:22:45.528Z,99494.53
2019-05-21T14:26:53.230Z,99515.91
2019-05-21T14:31:01.777Z,99504.70
2019-05-21T14:35:11.421Z,99510.52
2019-05-21T14:39:19.964Z,99497.98
2019-05-21T14:43:28.785Z,99482.16
2019-05-21T14:47:40.946Z,99487.80
2019-05-21T14:51:47.640Z,99468.92
2019-05-21T14:55:56.097Z,99460.56
2019-05-21T15:00:07.535Z,99450.84
2019-05-21T15:04:15.944Z,99435.76
2019-05-21T15:08:25.052Z,99432.47
2019-05-21T15:12:32.967Z,99430.47
2019-05-21T15:16:41.720Z,99442.02
2019-05-21T15:20:57.595Z,99428.84
2019-05-21T15:25:06.287Z,99438.39
2019-05-21T15:29:14.940Z,99443.82
2019-05-21T15:33:29.401Z,99447.33
2019-05-21T15:37:37.775Z,99450.97
2019-05-21T15:41:45.986Z,99460.94
2019-05-21T15:45:53.876Z,99480.33
2019-05-21T15:50:02.310Z,99472.14
2019-05-21T15:54:10.031Z,99468.45
2019-05-21T15:58:19.273Z,99455.98
2019-05-21T16:02:27.985Z,99447.69
2019-05-21T16:06:35.677Z,99438.74
2019-05-21T16:10:44.216Z,99396.70
2019-05-21T16:14:52.957Z,99428.63
2019-05-21T16:19:02.395Z,99433.53
2019-05-21T16:23:11.145Z,99406.84
2019-05-21T16:27:19.041Z,99407.16
2019-05-21T16:31:27.680Z,99430.65
2019-05-21T16:35:35.971Z,99429.21
2019-05-21T16:39:44.575Z,99430.00
2019-05-21T16:43:53.014Z,99460.03
2019-05-21T16:48:01.432Z,99510.06
2019-05-21T16:52:09.643Z,99512.26
2019-05-21T16:56:18.042Z,99596.37
2019-05-21T17:00:28.014Z,99596.37
2019-05-21T17:04:36.727Z,99709.10
2019-05-21T17:08:45.393Z,99709.10
2019-05-21T17:12:53.199Z,99790.36
2019-05-21T17:17:01.212Z,99801.02
2019-05-21T17:21:09.090Z,99767.19
2019-05-21T17:25:17.945Z,99737.39
2019-05-21T17:29:25.994Z,99720.55
2019-05-21T17:33:36.670Z,99729.70
2019-05-21T17:37:44.799Z,99734.52
2019-05-21T17:41:53.253Z,99752.19
2019-05-21T17:46:00.695Z,99794.17
2019-05-21T17:50:10.258Z,99847.44
2019-05-21T17:54:17.762Z,99856.12
2019-05-21T17:58:26.259Z,99849.58
2019-05-21T18:02:35.021Z,99844.42
2019-05-21T18:06:42.746Z,99852.58
2019-05-21T18:10:51.031Z,99857.65
2019-05-21T18:14:59.163Z,99870.79
2019-05-21T18:19:08.583Z,99869.97
2019-05-21T18:23:17.295Z,99861.69
2019-05-21T18:27:26.196Z,99838.59
2019-05-21T18:31:34.299Z,99828.23
2019-05-21T18:35:45.359Z,99785.17
2019-05-21T18:39:52.441Z,99715.71
2019-05-21T18:44:00.541Z,99706.75
2019-05-21T18:48:08.907Z,99714.83
2019-05-21T18:52:16.492Z,99660.86
2019-05-21T18:56:24.490Z,99654.01
2019-05-21T19:00:32.202Z,99640.97
2019-05-21T19:04:40.446Z,99629.58
2019-05-21T19:08:48.438Z,99621.70
2019-05-21T19:13:00.156Z,99630.13
2019-05-21T19:17:07.072Z,99652.80
2019-05-21T19:21:15.070Z,99680.35
2019-05-21T19:25:24.185Z,99678.91
2019-05-21T19:29:32.629Z,99692.45
2019-05-21T19:33:40.222Z,99705.34
2019-05-21T19:37:48.411Z,99706.90
2019-05-21T19:41:56.722Z,99722.08
2019-05-21T19:46:04.939Z,99724.13
2019-05-21T19:50:15.253Z,99722.17
2019-05-21T19:54:23.997Z,99724.91
2019-05-21T19:58:31.588Z,99733.51
2019-05-21T20:02:40.724Z,99747.22
2019-05-21T20:06:48.830Z,99759.75
2019-05-21T20:10:57.857Z,99772.55
2019-05-21T20:15:06.989Z,99770.59
2019-05-21T20:19:15.494Z,99767.33
2019-05-21T20:23:24.829Z,99781.80
2019-05-21T20:27:33.899Z,99776.38
2019-05-21T20:31:41.682Z,99771.37
2019-05-21T20:35:52.086Z,99761.19
2019-05-21T20:39:59.856Z,99762.42
2019-05-21T20:44:10.480Z,99764.87
2019-05-21T20:48:19.383Z,99775.00
2019-05-21T20:52:27.329Z,99781.84
2019-05-21T20:56:35.500Z,99771.92
2019-05-21T21:00:56.886Z,99770.66
2019-05-21T21:05:06.550Z,99773.13
2019-05-21T21:09:14.536Z,99772.78
2019-05-21T21:13:22.421Z,99767.20
2019-05-21T21:17:30.954Z,99767.08
2019-05-21T21:21:40.048Z,99771.08
2019-05-21T21:25:47.619Z,99764.58
2019-05-21T21:29:55.960Z,99764.17
2019-05-21T21:34:03.840Z,99759.73
2019-05-21T21:38:16.389Z,99762.28
2019-05-21T21:42:25.269Z,99768.31
2019-05-21T21:46:33.143Z,99769.38
2019-05-21T21:50:42.554Z,99773.41
2019-05-21T21:54:51.525Z,99773.19
2019-05-21T21:58:59.008Z,99779.65
2019-05-21T22:03:10.943Z,99772.97
2019-05-21T22:07:18.753Z,99771.92
2019-05-21T22:11:30.009Z,99763.50
2019-05-21T22:15:39.274Z,99761.44
2019-05-21T22:19:47.437Z,99766.77
2019-05-21T22:23:55.587Z,99768.60
2019-05-21T22:28:04.314Z,99775.86
2019-05-21T22:32:12.049Z,99774.45
2019-05-21T22:36:20.797Z,99778.02
2019-05-21T22:40:28.718Z,99781.31
2019-05-21T22:44:37.720Z,99775.44
2019-05-21T22:48:46.652Z,99785.31
2019-05-21T22:52:54.228Z,99778.30
2019-05-21T22:57:02.228Z,99779.66
2019-05-21T23:01:11.942Z,99784.38
2019-05-21T23:05:22.846Z,99775.18
2019-05-21T23:09:29.322Z,99765.96
2019-05-21T23:13:36.867Z,99761.12
2019-05-21T23:17:45.072Z,99758.13
2019-05-21T23:21:56.743Z,99760.32
2019-05-21T23:26:05.214Z,99761.66
2019-05-21T23:30:14.470Z,99765.06
2019-05-21T23:34:23.013Z,99761.19
2019-05-21T23:38:30.924Z,99759.78
2019-05-21T23:42:39.440Z,99764.64
2019-05-21T23:46:47.248Z,99770.72
2019-05-21T23:50:55.410Z,99767.48
2019-05-21T23:55:03.878Z,99774.11
2019-05-21T23:59:12.097Z,99772.42
